createdAt,value
2022-11-24T00:07:33.400Z,1.60
2022-11-24T00:17:35.543Z,1.60
2022-11-24T00:27:38.011Z,1.70
2022-11-24T00:37:40.524Z,1.60
2022-11-24T00:47:42.579Z,1.70
2022-11-24T00:57:44.756Z,1.60
2022-11-24T01:07:47.024Z,1.70
2022-11-24T01:17:49.169Z,1.70
2022-11-24T01:27:51.376Z,1.70
2022-11-24T01:37:53.498Z,1.60
2022-11-24T01:47:56.217Z,1.70
2022-11-24T01:58:08.442Z,1.80
2022-11-24T02:08:49.069Z,1.80
2022-11-24T02:18:51.314Z,1.80
2022-11-24T02:28:53.532Z,1.70
2022-11-24T02:38:55.808Z,1.80
2022-11-24T02:48:57.868Z,1.80
2022-11-24T02:59:00.036Z,1.90
2022-11-24T03:09:02.263Z,1.90
2022-11-24T03:19:04.856Z,2.00
2022-11-24T03:29:07.032Z,2.10
2022-11-24T03:39:09.303Z,2.10
2022-11-24T03:49:11.727Z,2.10
2022-11-24T03:59:13.976Z,2.10
2022-11-24T04:09:16.212Z,2.20
2022-11-24T04:19:18.457Z,1.90
2022-11-24T04:29:20.642Z,1.80
2022-11-24T04:39:26.242Z,2.00
2022-11-24T04:49:28.868Z,2.10
2022-11-24T04:59:31.070Z,2.10
2022-11-24T05:09:58.170Z,1.90
2022-11-24T05:19:56.039Z,1.90
2022-11-24T05:29:58.160Z,1.90
2022-11-24T05:40:00.208Z,2.10
2022-11-24T05:50:02.372Z,2.10
2022-11-24T06:00:05.977Z,1.90
2022-11-24T06:10:18.233Z,2.20
2022-11-24T06:20:20.149Z,1.90
2022-11-24T06:30:22.071Z,1.80
2022-11-24T06:40:23.906Z,2.00
2022-11-24T06:50:32.109Z,2.10
2022-11-24T07:00:37.664Z,2.00
2022-11-24T07:10:39.701Z,2.10
2022-11-24T07:20:42.257Z,2.10
2022-11-24T07:30:44.080Z,2.00
2022-11-24T07:40:46.493Z,2.20
2022-11-24T07:50:54.096Z,2.00
2022-11-24T08:00:59.441Z,2.10
2022-11-24T08:11:06.544Z,3.60
2022-11-24T08:21:14.394Z,2.20
2022-11-24T08:31:18.103Z,2.20
2022-11-24T08:41:19.989Z,2.20
2022-11-24T08:51:26.697Z,2.30
2022-11-24T09:01:29.478Z,2.30
2022-11-24T09:11:33.790Z,2.20
2022-11-24T09:21:36.223Z,2.30
2022-11-24T09:31:38.811Z,2.20
2022-11-24T09:42:14.411Z,2.20
2022-11-24T09:52:22.972Z,2.10
2022-11-24T10:02:24.977Z,2.00
2022-11-24T10:12:58.091Z,2.10
2022-11-24T10:23:37.006Z,2.10
2022-11-24T10:33:42.561Z,2.10
2022-11-24T10:43:44.880Z,2.40
2022-11-24T10:53:48.684Z,2.30
2022-11-24T11:03:53.738Z,2.30
2022-11-24T11:14:04.222Z,2.40
2022-11-24T11:24:16.861Z,2.30
2022-11-24T11:34:26.703Z,2.30
2022-11-24T11:44:49.819Z,2.50
2022-11-24T11:55:29.405Z,2.60
2022-11-24T12:06:16.860Z,2.80
2022-11-24T12:16:37.385Z,2.70
2022-11-24T12:26:54.878Z,3.00
2022-11-24T12:37:24.358Z,2.90
2022-11-24T12:47:54.385Z,2.70
2022-11-24T12:58:10.987Z,2.80
2022-11-24T13:08:14.897Z,2.70
2022-11-24T13:18:54.431Z,2.90
2022-11-24T13:29:13.397Z,2.90
2022-11-24T13:39:58.512Z,2.80
2022-11-24T13:50:01.738Z,2.80
2022-11-24T14:00:04.921Z,2.90
2022-11-24T14:10:15.962Z,2.70
2022-11-24T14:20:29.321Z,2.60
2022-11-24T14:30:31.192Z,2.80
2022-11-24T14:40:50.722Z,2.70
2022-11-24T14:50:53.815Z,2.70
2022-11-24T15:01:10.637Z,2.70
2022-11-24T15:11:13.495Z,2.80
2022-11-24T15:21:19.200Z,2.70
2022-11-24T15:31:25.085Z,2.90
2022-11-24T15:41:30.883Z,2.80
2022-11-24T15:51:33.568Z,3.00
2022-11-24T16:01:35.625Z,3.00
2022-11-24T16:11:37.556Z,2.80
2022-11-24T16:21:39.419Z,3.00
2022-11-24T16:31:41.670Z,3.00
2022-11-24T16:41:44.995Z,2.90
2022-11-24T16:51:46.837Z,2.80
2022-11-24T17:01:48.961Z,2.80
2022-11-24T17:11:50.865Z,2.80
2022-11-24T17:21:52.783Z,2.80
2022-11-24T17:31:54.582Z,2.80
2022-11-24T17:41:56.371Z,2.80
2022-11-24T17:51:58.220Z,2.80
2022-11-24T18:02:00.160Z,2.60
2022-11-24T18:12:02.030Z,2.60
2022-11-24T18:22:03.994Z,2.80
2022-11-24T18:32:06.283Z,2.70
2022-11-24T18:42:11.316Z,2.70
2022-11-24T18:52:13.680Z,2.60
2022-11-24T19:02:15.652Z,2.50
2022-11-24T19:12:17.463Z,2.50
2022-11-24T19:22:19.254Z,2.60
2022-11-24T19:32:21.169Z,2.50
2022-11-24T19:42:24.361Z,2.50
2022-11-24T19:52:26.176Z,2.50
2022-11-24T20:02:28.058Z,2.50
2022-11-24T20:12:35.546Z,2.50
2022-11-24T20:22:37.380Z,2.50
2022-11-24T20:32:39.201Z,2.60
2022-11-24T20:42:41.164Z,2.60
2022-11-24T20:52:43.071Z,2.50
2022-11-24T21:02:44.960Z,2.50
2022-11-24T21:12:50.035Z,2.50
2022-11-24T21:22:51.819Z,2.60
2022-11-24T21:32:58.963Z,2.70
2022-11-24T21:43:02.389Z,2.60
2022-11-24T21:53:04.303Z,2.60
2022-11-24T22:03:06.248Z,2.70
2022-11-24T22:13:08.184Z,2.80
2022-11-24T22:23:12.369Z,2.80
2022-11-24T22:33:14.226Z,2.70
2022-11-24T22:43:20.219Z,2.80
2022-11-24T22:53:24.925Z,2.90
2022-11-24T23:03:27.054Z,2.90
2022-11-24T23:13:29.208Z,3.00
2022-11-24T23:23:31.601Z,3.10
2022-11-24T23:33:34.168Z,3.20
2022-11-24T23:43:36.912Z,3.20
2022-11-24T23:53:39.240Z,3.20
